createdAt,value
2017-09-28T00:01:15.004Z,91.22
2017-09-28T00:03:42.740Z,91.11
2017-09-28T00:06:10.454Z,91.01
2017-09-28T00:08:38.202Z,91.01
2017-09-28T00:11:05.892Z,91.16
2017-09-28T00:13:33.646Z,91.16
2017-09-28T00:16:01.349Z,91.41
2017-09-28T00:18:29.107Z,91.20
2017-09-28T00:20:56.805Z,91.42
2017-09-28T00:23:24.552Z,91.38
2017-09-28T00:25:52.194Z,91.32
2017-09-28T00:28:19.954Z,91.28
2017-09-28T00:30:47.642Z,91.20
2017-09-28T00:33:15.385Z,91.07
2017-09-28T00:35:43.136Z,91.03
2017-09-28T00:38:10.916Z,91.05
2017-09-28T00:40:38.607Z,90.97
2017-09-28T00:43:06.394Z,90.93
2017-09-28T00:45:34.182Z,90.79
2017-09-28T00:48:01.962Z,90.91
2017-09-28T00:50:29.677Z,91.00
2017-09-28T00:52:57.317Z,91.05
2017-09-28T00:55:25.078Z,90.82
2017-09-28T00:57:52.765Z,90.79
2017-09-28T01:00:20.526Z,90.78
2017-09-28T01:02:48.240Z,90.87
2017-09-28T01:05:16.002Z,90.84
2017-09-28T01:07:43.693Z,90.88
2017-09-28T01:10:11.437Z,91.08
2017-09-28T01:12:39.151Z,91.14
2017-09-28T01:15:06.885Z,91.26
2017-09-28T01:17:34.616Z,91.26
2017-09-28T01:20:02.370Z,91.38
2017-09-28T01:22:30.089Z,91.48
2017-09-28T01:24:57.841Z,91.37
2017-09-28T01:27:25.543Z,91.39
2017-09-28T01:29:53.291Z,91.46
2017-09-28T01:32:20.988Z,91.50
2017-09-28T01:34:48.725Z,91.51
2017-09-28T01:37:16.416Z,91.54
2017-09-28T01:39:44.187Z,91.47
2017-09-28T01:42:11.872Z,91.44
2017-09-28T01:44:39.668Z,91.49
2017-09-28T01:47:07.384Z,91.62
2017-09-28T01:49:35.123Z,91.71
2017-09-28T01:52:02.763Z,91.76
2017-09-28T01:54:30.501Z,91.83
2017-09-28T01:56:58.183Z,91.92
2017-09-28T01:59:25.921Z,91.96
2017-09-28T02:01:53.616Z,92.00
2017-09-28T02:04:21.381Z,91.94
2017-09-28T02:06:49.102Z,91.97
2017-09-28T02:09:16.846Z,91.93
2017-09-28T02:11:44.494Z,91.85
2017-09-28T02:14:12.236Z,91.83
2017-09-28T02:16:39.959Z,91.89
2017-09-28T02:19:07.725Z,91.77
2017-09-28T02:21:35.437Z,91.80
2017-09-28T02:24:03.176Z,91.89
2017-09-28T02:26:30.890Z,91.89
2017-09-28T02:28:58.679Z,91.96
2017-09-28T02:31:26.392Z,91.92
2017-09-28T02:33:54.105Z,92.00
2017-09-28T02:36:21.855Z,92.04
2017-09-28T02:38:49.539Z,92.10
2017-09-28T02:41:17.277Z,92.16
2017-09-28T02:43:45.036Z,92.29
2017-09-28T02:46:12.784Z,92.45
2017-09-28T02:48:40.478Z,92.52
2017-09-28T02:51:08.213Z,92.63
2017-09-28T02:53:35.909Z,92.75
2017-09-28T02:56:03.651Z,92.89
2017-09-28T02:58:31.360Z,93.00
2017-09-28T03:00:59.113Z,93.10
2017-09-28T03:03:26.811Z,93.23
2017-09-28T03:05:54.564Z,93.23
2017-09-28T03:08:22.270Z,93.31
2017-09-28T03:10:50.031Z,93.41
2017-09-28T03:13:17.720Z,93.40
2017-09-28T03:15:45.480Z,93.39
2017-09-28T03:18:13.179Z,93.37
2017-09-28T03:20:40.924Z,93.30
2017-09-28T03:23:08.613Z,93.17
2017-09-28T03:25:36.355Z,93.07
2017-09-28T03:28:04.050Z,93.11
2017-09-28T03:30:31.803Z,93.19
2017-09-28T03:32:59.498Z,93.24
2017-09-28T03:35:27.228Z,93.30
2017-09-28T03:37:54.932Z,93.35
2017-09-28T03:40:22.687Z,93.36
2017-09-28T03:42:50.390Z,93.38
2017-09-28T03:45:18.204Z,93.32
2017-09-28T03:47:45.942Z,93.21
2017-09-28T03:50:13.744Z,93.14
2017-09-28T03:52:41.437Z,93.23
2017-09-28T03:55:09.237Z,93.14
2017-09-28T03:57:36.927Z,93.06
2017-09-28T04:00:04.755Z,92.99
2017-09-28T04:02:32.472Z,92.92
2017-09-28T04:05:00.224Z,92.97
2017-09-28T04:07:27.915Z,93.02
2017-09-28T04:09:55.661Z,92.98
2017-09-28T04:12:23.403Z,92.97
2017-09-28T04:14:51.104Z,93.27
2017-09-28T04:17:18.860Z,93.34
2017-09-28T04:19:46.575Z,93.40
2017-09-28T04:22:14.314Z,93.42
2017-09-28T04:24:42.029Z,93.43
2017-09-28T04:27:09.806Z,93.48
2017-09-28T04:29:37.932Z,93.57
2017-09-28T04:32:05.686Z,93.63
2017-09-28T04:34:33.402Z,93.65
2017-09-28T04:37:01.164Z,93.59
2017-09-28T04:39:28.888Z,93.54
2017-09-28T04:41:56.631Z,93.45
2017-09-28T04:44:24.383Z,93.45
2017-09-28T04:46:52.125Z,93.56
2017-09-28T04:49:19.783Z,93.55
2017-09-28T04:51:47.469Z,93.54
2017-09-28T04:54:15.117Z,93.75
2017-09-28T04:56:42.813Z,93.99
2017-09-28T04:59:10.447Z,94.14
2017-09-28T05:01:38.135Z,94.31
2017-09-28T05:04:05.791Z,94.44
2017-09-28T05:06:33.497Z,94.58
2017-09-28T05:09:01.157Z,94.80
2017-09-28T05:11:28.837Z,94.96
2017-09-28T05:13:56.487Z,95.02
2017-09-28T05:16:24.187Z,95.06
2017-09-28T05:18:51.837Z,95.10
2017-09-28T05:21:19.538Z,95.23
2017-09-28T05:23:47.268Z,95.23
2017-09-28T05:26:15.019Z,95.29
2017-09-28T05:28:42.747Z,95.24
2017-09-28T05:31:10.508Z,95.18
2017-09-28T05:33:38.230Z,95.11
2017-09-28T05:36:06.028Z,94.93
2017-09-28T05:38:33.747Z,94.74
2017-09-28T05:41:01.552Z,94.65
2017-09-28T05:43:29.321Z,94.63
2017-09-28T05:45:57.109Z,94.48
2017-09-28T05:48:24.837Z,94.21
2017-09-28T05:50:52.572Z,94.04
2017-09-28T05:53:20.327Z,93.89
2017-09-28T05:55:48.039Z,93.74
2017-09-28T05:58:15.776Z,93.68
2017-09-28T06:00:43.499Z,93.62
2017-09-28T06:03:11.205Z,93.88
2017-09-28T06:05:38.934Z,93.95
2017-09-28T06:08:06.665Z,93.91
2017-09-28T06:10:34.379Z,93.86
2017-09-28T06:13:02.152Z,93.50
2017-09-28T06:15:29.878Z,93.39
2017-09-28T06:17:58.001Z,93.40
2017-09-28T06:20:25.703Z,93.15
2017-09-28T06:22:53.456Z,93.15
2017-09-28T06:25:21.156Z,92.93
2017-09-28T06:27:48.903Z,93.03
2017-09-28T06:30:16.631Z,92.53
2017-09-28T06:32:44.377Z,92.59
2017-09-28T06:35:12.129Z,92.20
2017-09-28T06:37:39.823Z,92.26
2017-09-28T06:40:07.522Z,92.15
2017-09-28T06:42:35.290Z,92.08
2017-09-28T06:45:03.058Z,92.00
2017-09-28T06:47:30.878Z,91.96
2017-09-28T06:49:58.583Z,91.42
2017-09-28T06:52:26.324Z,91.33
2017-09-28T06:54:54.034Z,90.97
2017-09-28T06:57:21.714Z,90.37
2017-09-28T06:59:49.417Z,89.80
2017-09-28T07:02:17.176Z,89.60
2017-09-28T07:04:44.881Z,90.21
2017-09-28T07:07:12.641Z,90.02
2017-09-28T07:09:40.380Z,89.50
2017-09-28T07:12:08.138Z,89.95
2017-09-28T07:14:35.844Z,90.27
2017-09-28T07:17:03.601Z,89.76
2017-09-28T07:19:31.312Z,89.72
2017-09-28T07:21:59.069Z,89.99
2017-09-28T07:24:26.781Z,89.19
2017-09-28T07:26:54.544Z,89.32
2017-09-28T07:29:22.252Z,89.48
2017-09-28T07:31:49.999Z,89.28
2017-09-28T07:42:45.017Z,88.34
2017-09-28T07:45:13.944Z,87.51
2017-09-28T07:47:41.669Z,87.56
2017-09-28T07:50:09.518Z,87.46
2017-09-28T07:52:37.270Z,87.76
2017-09-28T07:55:05.019Z,87.75
2017-09-28T07:57:32.765Z,87.22
2017-09-28T08:00:00.486Z,86.86
2017-09-28T08:02:28.255Z,86.93
2017-09-28T08:04:55.960Z,87.34
2017-09-28T08:07:23.698Z,87.35
2017-09-28T08:09:51.399Z,87.54
2017-09-28T08:12:19.216Z,87.97
2017-09-28T08:14:46.887Z,87.85
2017-09-28T08:17:14.696Z,87.86
2017-09-28T08:19:42.451Z,86.74
2017-09-28T08:22:10.215Z,86.01
2017-09-28T08:24:37.983Z,86.08
2017-09-28T08:27:05.688Z,86.05
2017-09-28T08:29:33.474Z,85.70
2017-09-28T08:32:01.178Z,85.90
2017-09-28T08:34:28.954Z,86.52
2017-09-28T08:36:56.664Z,85.43
2017-09-28T08:39:24.425Z,85.69
2017-09-28T08:41:52.143Z,85.81
2017-09-28T08:44:19.945Z,86.00
2017-09-28T08:46:47.645Z,85.35
2017-09-28T08:49:22.228Z,84.50
2017-09-28T08:51:57.875Z,84.73
2017-09-28T08:54:39.037Z,84.54
2017-09-28T08:57:29.783Z,84.47
2017-09-28T08:59:57.462Z,83.69
2017-09-28T09:02:25.156Z,83.57
2017-09-28T09:04:59.540Z,83.97
2017-09-28T09:07:27.526Z,84.14
2017-09-28T09:09:55.206Z,83.59
2017-09-28T09:12:22.838Z,83.25
2017-09-28T09:14:50.542Z,82.39
2017-09-28T09:17:18.179Z,81.51
2017-09-28T09:19:50.356Z,81.29
2017-09-28T09:22:18.393Z,81.56
2017-09-28T09:24:46.137Z,82.22
2017-09-28T09:27:13.861Z,83.27
2017-09-28T09:29:41.615Z,82.54
2017-09-28T09:32:09.370Z,81.50
2017-09-28T09:34:37.182Z,82.46
2017-09-28T09:37:04.895Z,82.02
2017-09-28T09:39:32.650Z,82.32
2017-09-28T09:42:00.370Z,81.91
2017-09-28T09:44:28.061Z,82.36
2017-09-28T09:46:55.704Z,81.82
2017-09-28T09:49:23.408Z,81.00
2017-09-28T09:51:51.068Z,81.90
2017-09-28T09:54:18.901Z,81.64
2017-09-28T09:56:46.620Z,81.68
2017-09-28T09:59:14.383Z,81.36
2017-09-28T10:01:42.105Z,80.90
2017-09-28T10:04:09.840Z,80.62
2017-09-28T10:06:43.161Z,80.56
2017-09-28T10:09:14.345Z,80.57
2017-09-28T10:11:45.540Z,79.53
2017-09-28T10:14:15.681Z,80.69
2017-09-28T10:16:43.376Z,78.84
2017-09-28T10:19:11.149Z,78.63
2017-09-28T10:21:38.879Z,77.45
2017-09-28T10:24:06.633Z,77.89
2017-09-28T10:26:34.343Z,79.29
2017-09-28T10:29:02.119Z,79.01
2017-09-28T10:31:29.833Z,79.12
2017-09-28T10:33:57.591Z,78.16
2017-09-28T10:36:25.314Z,76.88
2017-09-28T10:38:53.061Z,77.15
2017-09-28T10:41:20.762Z,77.08
2017-09-28T10:43:52.880Z,74.30
2017-09-28T10:46:27.528Z,75.40
2017-09-28T10:48:55.239Z,75.35
2017-09-28T10:51:22.929Z,75.96
2017-09-28T10:53:50.620Z,78.27
2017-09-28T10:56:18.306Z,78.72
2017-09-28T10:58:45.953Z,77.11
2017-09-28T11:01:13.647Z,77.38
2017-09-28T11:03:45.994Z,76.49
2017-09-28T11:06:14.046Z,76.65
2017-09-28T11:08:41.699Z,75.94
2017-09-28T11:11:09.413Z,77.56
2017-09-28T11:13:37.055Z,77.42
2017-09-28T11:16:04.805Z,76.89
2017-09-28T11:18:32.465Z,76.79
2017-09-28T11:21:00.179Z,76.46
2017-09-28T11:23:27.809Z,76.45
2017-09-28T11:25:55.514Z,75.97
2017-09-28T11:28:23.154Z,75.96
2017-09-28T11:31:24.329Z,75.03
2017-09-28T11:34:08.756Z,74.72
2017-09-28T11:45:51.978Z,76.65
2017-09-28T12:02:57.639Z,80.19
2017-09-28T12:05:25.373Z,80.16
2017-09-28T12:07:53.033Z,81.00
2017-09-28T12:10:20.772Z,80.61
2017-09-28T12:12:48.474Z,80.32
2017-09-28T12:15:16.221Z,79.51
2017-09-28T12:17:43.933Z,80.29
2017-09-28T12:20:11.686Z,79.96
2017-09-28T12:22:39.400Z,79.46
2017-09-28T12:25:07.106Z,79.86
2017-09-28T12:27:34.792Z,78.39
2017-09-28T12:30:02.586Z,79.37
2017-09-28T12:32:30.293Z,78.58
2017-09-28T12:34:58.035Z,78.52
2017-09-28T12:37:25.723Z,78.40
2017-09-28T12:39:53.423Z,77.40
2017-09-28T12:42:21.143Z,77.20
2017-09-28T12:44:48.971Z,77.34
2017-09-28T12:47:16.724Z,77.33
2017-09-28T12:49:44.445Z,77.34
2017-09-28T12:52:12.204Z,77.93
2017-09-28T12:54:39.933Z,77.22
2017-09-28T12:57:07.725Z,76.90
2017-09-28T12:59:35.442Z,77.11
2017-09-28T13:02:03.149Z,77.04
2017-09-28T13:04:30.868Z,77.00
2017-09-28T13:06:58.984Z,77.43
2017-09-28T13:15:10.211Z,78.33
2017-09-28T13:17:37.874Z,78.25
2017-09-28T13:20:05.604Z,77.41
2017-09-28T13:22:33.397Z,77.04
2017-09-28T13:25:01.091Z,77.26
2017-09-28T13:27:28.824Z,77.64
2017-09-28T13:29:56.516Z,77.97
2017-09-28T13:32:24.245Z,77.79
2017-09-28T13:34:51.940Z,77.55
2017-09-28T13:37:19.687Z,77.45
2017-09-28T13:39:47.398Z,77.12
2017-09-28T13:42:15.089Z,77.48
2017-09-28T13:44:42.831Z,77.40
2017-09-28T13:47:10.599Z,77.61
2017-09-28T13:49:38.269Z,77.06
2017-09-28T13:52:05.962Z,76.94
2017-09-28T13:54:37.163Z,77.75
2017-09-28T13:57:04.998Z,77.23
2017-09-28T13:59:33.781Z,77.00
2017-09-28T14:02:03.239Z,77.26
2017-09-28T14:04:31.116Z,76.75
2017-09-28T14:06:58.807Z,77.12
2017-09-28T14:09:26.521Z,77.10
2017-09-28T14:11:54.283Z,77.84
2017-09-28T14:14:22.017Z,77.74
2017-09-28T14:16:49.711Z,78.33
2017-09-28T14:19:17.414Z,78.27
2017-09-28T14:21:45.164Z,78.19
2017-09-28T14:24:12.829Z,78.14
2017-09-28T14:26:40.512Z,77.49
2017-09-28T14:29:08.243Z,77.51
2017-09-28T14:31:35.989Z,77.52
2017-09-28T14:34:03.729Z,78.28
2017-09-28T14:36:31.412Z,78.81
2017-09-28T14:38:59.138Z,78.81
2017-09-28T14:41:26.817Z,78.92
2017-09-28T14:43:54.589Z,78.79
2017-09-28T14:46:22.317Z,79.73
2017-09-28T14:48:50.018Z,79.88
2017-09-28T14:51:17.701Z,79.79
2017-09-28T14:53:45.413Z,79.97
2017-09-28T14:56:13.348Z,80.23
2017-09-28T14:58:41.048Z,80.48
2017-09-28T15:01:08.758Z,80.75
2017-09-28T15:03:36.457Z,80.92
2017-09-28T15:06:04.157Z,81.36
2017-09-28T15:08:31.839Z,81.31
2017-09-28T15:10:59.667Z,81.61
2017-09-28T15:13:27.393Z,81.72
2017-09-28T15:15:59.439Z,81.94
2017-09-28T15:18:27.121Z,82.22
2017-09-28T15:21:03.209Z,82.93
2017-09-28T15:23:35.295Z,83.14
2017-09-28T15:26:07.549Z,83.52
2017-09-28T15:28:35.212Z,83.78
2017-09-28T15:31:07.413Z,83.40
2017-09-28T15:33:35.098Z,83.50
2017-09-28T15:36:02.768Z,83.64
2017-09-28T15:38:30.465Z,83.41
2017-09-28T15:40:58.150Z,83.81
2017-09-28T15:43:25.828Z,83.74
2017-09-28T15:45:53.770Z,83.52
2017-09-28T15:48:21.541Z,83.83
2017-09-28T15:50:49.168Z,83.79
2017-09-28T15:53:16.916Z,83.90
2017-09-28T15:55:44.550Z,83.76
2017-09-28T15:58:12.235Z,83.79
2017-09-28T16:00:39.938Z,84.25
2017-09-28T16:03:07.678Z,83.87
2017-09-28T16:05:35.389Z,84.00
2017-09-28T16:08:03.063Z,84.37
2017-09-28T16:10:30.753Z,84.29
2017-09-28T16:12:58.446Z,84.33
2017-09-28T16:15:26.087Z,84.90
2017-09-28T16:17:53.777Z,85.04
2017-09-28T16:20:21.428Z,84.70
2017-09-28T16:22:49.172Z,85.08
2017-09-28T16:25:16.919Z,85.25
2017-09-28T16:27:44.632Z,85.34
2017-09-28T16:30:12.272Z,85.52
2017-09-28T16:32:39.959Z,85.68
2017-09-28T16:35:07.673Z,85.96
2017-09-28T16:37:35.440Z,85.86
2017-09-28T16:40:03.146Z,86.40
2017-09-28T16:42:30.899Z,86.74
2017-09-28T16:44:58.660Z,86.93
2017-09-28T16:47:26.413Z,87.15
2017-09-28T16:49:54.129Z,87.50
2017-09-28T16:52:22.024Z,87.56
2017-09-28T16:54:49.751Z,87.81
2017-09-28T16:57:17.509Z,88.09
2017-09-28T16:59:45.133Z,88.22
2017-09-28T17:02:12.833Z,88.52
2017-09-28T17:04:40.602Z,88.52
2017-09-28T17:07:08.307Z,88.79
2017-09-28T17:09:36.067Z,89.11
2017-09-28T17:12:03.782Z,89.42
2017-09-28T17:14:31.545Z,89.49
2017-09-28T17:16:59.252Z,89.58
2017-09-28T17:19:27.030Z,89.59
2017-09-28T17:21:54.725Z,89.45
2017-09-28T17:24:22.480Z,89.45
2017-09-28T17:26:50.186Z,89.33
2017-09-28T17:29:17.916Z,89.28
2017-09-28T17:31:45.624Z,89.29
2017-09-28T17:34:13.382Z,89.22
2017-09-28T17:36:41.109Z,89.37
2017-09-28T17:39:08.893Z,89.49
2017-09-28T17:41:36.622Z,89.50
2017-09-28T17:44:04.433Z,89.51
2017-09-28T17:46:32.135Z,89.54
2017-09-28T17:49:00.123Z,89.56
2017-09-28T17:51:27.822Z,89.78
2017-09-28T17:53:55.622Z,89.78
2017-09-28T17:56:23.345Z,89.69
2017-09-28T17:58:51.113Z,89.83
2017-09-28T18:01:18.801Z,89.91
2017-09-28T18:03:46.541Z,89.68
2017-09-28T18:06:14.275Z,89.78
2017-09-28T18:08:42.094Z,89.60
2017-09-28T18:11:09.828Z,89.41
2017-09-28T18:13:37.589Z,89.34
2017-09-28T18:16:05.294Z,89.18
2017-09-28T18:18:33.966Z,89.22
2017-09-28T18:21:01.709Z,89.24
2017-09-28T18:23:29.474Z,89.07
2017-09-28T18:25:57.203Z,89.16
2017-09-28T18:28:24.946Z,89.11
2017-09-28T18:30:52.668Z,89.14
2017-09-28T18:33:20.417Z,89.06
2017-09-28T18:35:48.131Z,89.25
2017-09-28T18:38:16.045Z,88.99
2017-09-28T18:40:43.777Z,88.92
2017-09-28T18:43:11.652Z,88.99
2017-09-28T18:45:39.506Z,89.10
2017-09-28T18:48:07.314Z,89.13
2017-09-28T18:50:35.139Z,89.22
2017-09-28T18:53:02.914Z,89.28
2017-09-28T18:55:30.834Z,89.32
2017-09-28T18:57:58.565Z,89.47
2017-09-28T19:00:26.325Z,89.40
2017-09-28T19:02:54.056Z,89.50
2017-09-28T19:05:21.876Z,89.45
2017-09-28T19:07:49.602Z,89.60
2017-09-28T19:10:17.359Z,89.59
2017-09-28T19:12:45.084Z,89.70
2017-09-28T19:15:12.835Z,89.66
2017-09-28T19:17:40.532Z,89.90
2017-09-28T19:20:08.300Z,90.03
2017-09-28T19:22:36.008Z,90.00
2017-09-28T19:25:03.809Z,90.16
2017-09-28T19:27:31.524Z,90.12
2017-09-28T19:29:59.210Z,90.21
2017-09-28T19:32:26.921Z,90.32
2017-09-28T19:34:54.674Z,90.49
2017-09-28T19:37:22.406Z,90.43
2017-09-28T19:39:50.149Z,90.53
2017-09-28T19:42:17.899Z,90.55
2017-09-28T19:44:45.602Z,90.63
2017-09-28T19:47:13.315Z,90.62
2017-09-28T19:49:41.101Z,90.58
2017-09-28T19:52:08.826Z,90.55
2017-09-28T19:54:36.638Z,90.70
2017-09-28T19:57:04.353Z,90.82
2017-09-28T19:59:32.103Z,90.88
2017-09-28T20:01:59.806Z,90.87
2017-09-28T20:04:27.580Z,90.79
2017-09-28T20:06:55.311Z,90.73
2017-09-28T20:09:23.101Z,90.75
2017-09-28T20:11:50.802Z,90.69
2017-09-28T20:14:18.569Z,90.73
2017-09-28T20:16:46.342Z,90.67
2017-09-28T20:19:14.158Z,90.83
2017-09-28T20:21:41.919Z,90.90
2017-09-28T20:24:09.653Z,91.02
2017-09-28T20:26:37.443Z,90.99
2017-09-28T20:29:05.170Z,91.14
2017-09-28T20:31:32.936Z,90.93
2017-09-28T20:34:00.649Z,90.93
2017-09-28T20:36:28.410Z,91.05
2017-09-28T20:38:56.138Z,91.13
2017-09-28T20:41:23.912Z,91.24
2017-09-28T20:43:51.636Z,91.33
2017-09-28T20:46:19.435Z,91.30
2017-09-28T20:48:47.144Z,91.49
2017-09-28T20:51:14.925Z,91.41
2017-09-28T20:53:42.638Z,91.56
2017-09-28T20:56:10.393Z,91.59
2017-09-28T20:58:38.126Z,91.65
2017-09-28T21:01:05.887Z,91.79
2017-09-28T21:03:33.580Z,92.00
2017-09-28T21:06:01.328Z,92.07
2017-09-28T21:08:28.993Z,92.19
2017-09-28T21:10:56.751Z,92.41
2017-09-28T21:13:24.467Z,92.46
2017-09-28T21:15:52.214Z,92.66
2017-09-28T21:18:19.917Z,93.00
2017-09-28T21:20:47.694Z,93.15
2017-09-28T21:23:15.404Z,93.30
2017-09-28T21:25:43.156Z,93.35
2017-09-28T21:28:10.851Z,93.46
2017-09-28T21:30:38.605Z,93.47
2017-09-28T21:33:06.308Z,93.56
2017-09-28T21:35:34.054Z,93.63
2017-09-28T21:38:01.826Z,93.75
2017-09-28T21:40:29.591Z,93.85
2017-09-28T21:42:57.287Z,93.89
2017-09-28T21:45:25.117Z,93.90
2017-09-28T21:47:52.825Z,93.99
2017-09-28T21:50:20.611Z,94.06
2017-09-28T21:52:48.325Z,94.16
2017-09-28T21:55:16.074Z,94.21
2017-09-28T21:57:43.799Z,94.27
2017-09-28T22:00:11.551Z,94.27
2017-09-28T22:02:39.299Z,94.33
2017-09-28T22:05:07.006Z,94.31
2017-09-28T22:07:34.753Z,94.24
2017-09-28T22:10:02.400Z,94.17
2017-09-28T22:12:30.142Z,94.15
2017-09-28T22:14:57.849Z,94.13
2017-09-28T22:17:25.596Z,94.04
2017-09-28T22:19:53.300Z,94.06
2017-09-28T22:22:21.058Z,94.04
2017-09-28T22:24:48.767Z,94.05
2017-09-28T22:27:16.519Z,93.98
2017-09-28T22:29:44.243Z,93.99
2017-09-28T22:32:11.995Z,93.98
2017-09-28T22:34:39.710Z,93.95
2017-09-28T22:37:07.424Z,93.87
2017-09-28T22:39:35.121Z,93.78
2017-09-28T22:42:02.882Z,93.72
2017-09-28T22:44:30.636Z,93.74
2017-09-28T22:46:58.388Z,93.84
2017-09-28T22:49:26.083Z,93.92
2017-09-28T22:51:53.834Z,93.95
2017-09-28T22:54:21.522Z,94.05
2017-09-28T22:56:49.271Z,94.13
2017-09-28T22:59:16.970Z,94.26
2017-09-28T23:01:44.748Z,94.42
2017-09-28T23:04:12.486Z,94.47
2017-09-28T23:06:40.282Z,94.44
2017-09-28T23:09:07.931Z,94.45
2017-09-28T23:11:35.695Z,94.43
2017-09-28T23:14:03.389Z,94.42
2017-09-28T23:16:31.132Z,94.40
2017-09-28T23:18:58.840Z,94.41
2017-09-28T23:21:26.577Z,94.37
2017-09-28T23:23:54.300Z,94.35
2017-09-28T23:26:22.061Z,94.48
2017-09-28T23:28:49.762Z,94.57
2017-09-28T23:31:17.508Z,94.60
2017-09-28T23:33:45.212Z,94.67
2017-09-28T23:36:12.980Z,94.77
2017-09-28T23:38:40.731Z,94.82
2017-09-28T23:41:08.482Z,94.82
2017-09-28T23:43:36.180Z,94.79
2017-09-28T23:46:03.935Z,94.77
2017-09-28T23:48:31.683Z,94.80
2017-09-28T23:50:59.371Z,94.82
2017-09-28T23:53:27.116Z,95.00
2017-09-28T23:55:54.775Z,95.09
2017-09-28T23:58:22.608Z,95.22
